createdAt,value
2022-08-19T00:02:17.583Z,16.80
2022-08-19T00:04:47.856Z,15.77
2022-08-19T00:07:15.359Z,17.13
2022-08-19T00:09:44.204Z,16.80
2022-08-19T00:12:12.008Z,17.37
2022-08-19T00:14:40.136Z,16.93
2022-08-19T00:17:07.764Z,16.60
2022-08-19T00:19:35.644Z,17.13
2022-08-19T00:22:03.490Z,16.10
2022-08-19T00:24:31.106Z,16.07
2022-08-19T00:27:24.862Z,16.40
2022-08-19T00:29:52.478Z,16.40
2022-08-19T00:32:20.817Z,17.03
2022-08-19T00:34:48.292Z,16.50
2022-08-19T00:37:15.858Z,16.40
2022-08-19T00:39:43.411Z,16.03
2022-08-19T00:42:15.060Z,15.67
2022-08-19T00:44:44.081Z,15.57
2022-08-19T00:47:14.318Z,15.33
2022-08-19T00:49:46.528Z,15.00
2022-08-19T00:52:16.119Z,16.10
2022-08-19T00:54:44.099Z,18.00
2022-08-19T00:57:16.367Z,15.63
2022-08-19T01:00:01.092Z,16.43
2022-08-19T01:02:30.993Z,17.60
2022-08-19T01:04:58.512Z,16.90
2022-08-19T01:07:26.145Z,17.93
2022-08-19T01:09:53.675Z,16.53
2022-08-19T01:12:22.550Z,17.03
2022-08-19T01:14:51.071Z,17.20
2022-08-19T01:17:18.657Z,18.43
2022-08-19T01:19:47.701Z,17.20
2022-08-19T01:22:23.355Z,16.60
2022-08-19T01:24:56.612Z,17.50
2022-08-19T01:27:24.308Z,16.40
2022-08-19T01:29:52.225Z,16.50
2022-08-19T01:32:33.112Z,15.03
2022-08-19T01:35:02.992Z,16.20
2022-08-19T01:37:31.324Z,16.47
2022-08-19T01:40:00.403Z,16.20
2022-08-19T01:42:30.268Z,17.63
2022-08-19T01:44:58.118Z,16.23
2022-08-19T01:47:25.611Z,16.20
2022-08-19T01:49:53.067Z,17.47
2022-08-19T01:52:20.498Z,19.33
2022-08-19T01:54:47.998Z,17.37
2022-08-19T01:57:16.783Z,17.27
2022-08-19T01:59:44.791Z,17.20
2022-08-19T02:02:12.291Z,16.70
2022-08-19T02:04:40.103Z,17.17
2022-08-19T02:07:08.893Z,19.53
2022-08-19T02:09:36.403Z,17.80
2022-08-19T02:12:04.034Z,16.80
2022-08-19T02:14:32.839Z,17.53
2022-08-19T02:17:00.264Z,18.90
2022-08-19T02:19:28.158Z,16.33
2022-08-19T02:21:55.599Z,17.20
2022-08-19T02:24:23.076Z,16.50
2022-08-19T02:26:50.523Z,16.53
2022-08-19T02:29:18.247Z,16.00
2022-08-19T02:31:47.040Z,15.93
2022-08-19T02:34:14.508Z,16.50
2022-08-19T02:36:42.551Z,16.43
2022-08-19T02:39:09.270Z,16.73
2022-08-19T02:41:36.730Z,17.90
2022-08-19T02:44:30.454Z,16.90
2022-08-19T02:46:54.000Z,17.60
2022-08-19T02:49:21.642Z,16.83
2022-08-19T02:51:49.192Z,17.37
2022-08-19T02:54:16.680Z,16.67
2022-08-19T02:56:45.104Z,17.13
2022-08-19T02:59:12.872Z,18.00
2022-08-19T03:01:41.999Z,17.60
2022-08-19T03:04:12.830Z,17.53
2022-08-19T03:06:40.891Z,17.97
2022-08-19T03:09:08.362Z,17.70
2022-08-19T03:11:36.111Z,17.53
2022-08-19T03:14:04.631Z,16.23
2022-08-19T03:16:34.202Z,17.43
2022-08-19T03:19:02.301Z,16.50
2022-08-19T03:21:32.830Z,19.13
2022-08-19T03:24:01.231Z,19.87
2022-08-19T03:26:28.771Z,17.43
2022-08-19T03:28:58.563Z,17.10
2022-08-19T03:31:43.936Z,17.00
2022-08-19T03:34:16.180Z,17.03
2022-08-19T03:36:45.595Z,17.50
2022-08-19T03:39:13.035Z,16.17
2022-08-19T03:41:45.635Z,16.70
2022-08-19T03:44:16.910Z,17.10
2022-08-19T03:46:46.621Z,17.13
2022-08-19T03:49:14.744Z,21.03
2022-08-19T03:51:43.390Z,17.43
2022-08-19T03:54:13.726Z,17.00
2022-08-19T03:56:42.024Z,18.37
2022-08-19T03:59:11.700Z,19.10
2022-08-19T04:01:39.216Z,17.23
2022-08-19T04:04:06.737Z,17.47
2022-08-19T04:06:35.955Z,17.20
2022-08-19T04:09:09.618Z,17.23
2022-08-19T04:11:42.981Z,18.40
2022-08-19T04:14:12.474Z,16.73
2022-08-19T04:16:40.109Z,17.07
2022-08-19T04:19:07.820Z,21.30
2022-08-19T04:21:35.922Z,17.50
2022-08-19T04:24:04.076Z,15.90
2022-08-19T04:26:33.945Z,16.43
2022-08-19T04:29:02.943Z,16.93
2022-08-19T04:31:31.636Z,17.03
2022-08-19T04:34:00.123Z,16.30
2022-08-19T04:36:28.637Z,16.60
2022-08-19T04:38:56.619Z,18.00
2022-08-19T04:41:42.173Z,16.70
2022-08-19T04:44:11.291Z,16.93
2022-08-19T04:46:50.750Z,17.43
2022-08-19T04:49:20.105Z,19.00
2022-08-19T04:51:49.047Z,16.50
2022-08-19T04:54:33.764Z,19.13
2022-08-19T04:57:06.052Z,16.60
2022-08-19T04:59:35.421Z,17.40
2022-08-19T05:02:02.935Z,18.00
2022-08-19T05:04:33.119Z,18.30
2022-08-19T05:07:01.639Z,22.40
2022-08-19T05:09:53.284Z,21.03
2022-08-19T05:12:17.165Z,24.13
2022-08-19T05:14:48.138Z,18.37
2022-08-19T05:17:36.045Z,23.83
2022-08-19T05:20:20.769Z,19.53
2022-08-19T05:22:48.867Z,19.90
2022-08-19T05:25:19.423Z,17.17
2022-08-19T05:27:47.003Z,17.17
2022-08-19T05:30:16.167Z,17.67
2022-08-19T05:32:44.109Z,17.93
2022-08-19T05:35:12.375Z,19.33
2022-08-19T05:37:41.123Z,19.53
2022-08-19T05:40:09.532Z,17.63
2022-08-19T05:42:37.119Z,19.10
2022-08-19T05:45:05.269Z,18.13
2022-08-19T05:47:34.366Z,17.20
2022-08-19T05:50:02.825Z,17.87
2022-08-19T05:52:32.678Z,19.67
2022-08-19T05:55:01.071Z,18.43
2022-08-19T05:57:29.773Z,18.27
2022-08-19T05:59:59.176Z,20.67
2022-08-19T06:02:27.183Z,20.10
2022-08-19T06:04:56.027Z,19.47
2022-08-19T06:07:23.804Z,19.70
2022-08-19T06:10:00.537Z,21.83
2022-08-19T06:12:31.521Z,20.90
2022-08-19T06:15:01.299Z,23.80
2022-08-19T06:17:30.870Z,22.37
2022-08-19T06:20:00.207Z,29.43
2022-08-19T06:22:28.192Z,29.90
2022-08-19T06:24:56.240Z,27.30
2022-08-19T06:27:24.174Z,24.00
2022-08-19T06:29:51.694Z,38.47
2022-08-19T06:32:19.771Z,50.70
2022-08-19T06:34:47.398Z,34.00
2022-08-19T06:37:16.969Z,25.40
2022-08-19T06:39:45.540Z,31.27
2022-08-19T06:42:14.303Z,33.53
2022-08-19T06:44:43.822Z,27.40
2022-08-19T06:47:23.428Z,32.03
2022-08-19T06:50:01.404Z,30.20
2022-08-19T06:52:34.302Z,33.97
2022-08-19T06:55:02.107Z,34.10
2022-08-19T06:57:34.206Z,35.33
2022-08-19T07:00:01.990Z,36.33
2022-08-19T07:02:29.565Z,37.33
2022-08-19T07:04:58.803Z,32.63
2022-08-19T07:07:26.496Z,35.20
2022-08-19T07:10:00.020Z,38.60
2022-08-19T07:12:31.057Z,34.70
2022-08-19T07:14:59.031Z,32.10
2022-08-19T07:17:26.852Z,29.53
2022-08-19T07:19:54.806Z,34.60
2022-08-19T07:22:23.422Z,36.67
2022-08-19T07:24:52.065Z,35.17
2022-08-19T07:27:24.722Z,31.30
2022-08-19T07:29:56.078Z,34.47
2022-08-19T07:32:24.570Z,31.40
2022-08-19T07:34:53.464Z,34.20
2022-08-19T07:37:20.923Z,34.83
2022-08-19T07:39:48.827Z,36.00
2022-08-19T07:42:16.327Z,30.97
2022-08-19T07:44:50.707Z,29.07
2022-08-19T07:47:47.534Z,31.13
2022-08-19T07:50:08.043Z,31.27
2022-08-19T07:52:36.854Z,31.03
2022-08-19T07:55:05.505Z,29.97
2022-08-19T07:57:33.000Z,26.03
2022-08-19T08:00:01.952Z,30.57
2022-08-19T08:02:29.466Z,29.87
2022-08-19T08:05:14.534Z,28.47
2022-08-19T08:07:55.891Z,25.23
2022-08-19T08:10:24.206Z,28.53
2022-08-19T08:13:10.021Z,34.90
2022-08-19T08:15:43.034Z,31.40
2022-08-19T08:18:11.248Z,24.73
2022-08-19T08:20:39.062Z,30.33
2022-08-19T08:23:26.568Z,25.73
2022-08-19T08:25:55.652Z,26.33
2022-08-19T08:28:23.978Z,23.47
2022-08-19T08:30:52.842Z,22.83
2022-08-19T08:33:33.237Z,23.47
2022-08-19T08:36:03.741Z,26.03
2022-08-19T08:38:38.368Z,22.13
2022-08-19T08:41:11.108Z,24.73
2022-08-19T08:43:40.022Z,22.53
2022-08-19T08:46:12.278Z,23.17
2022-08-19T08:48:41.704Z,20.63
2022-08-19T08:51:11.481Z,17.90
2022-08-19T08:53:41.780Z,25.43
2022-08-19T08:56:13.283Z,15.87
2022-08-19T08:58:46.895Z,23.00
2022-08-19T09:01:16.344Z,18.53
2022-08-19T09:03:44.842Z,16.97
2022-08-19T09:06:14.636Z,15.87
2022-08-19T09:08:49.486Z,25.70
2022-08-19T09:11:42.386Z,23.90
2022-08-19T09:14:34.972Z,15.40
2022-08-19T09:17:04.268Z,15.70
2022-08-19T09:19:32.065Z,21.87
2022-08-19T09:22:01.514Z,18.30
2022-08-19T09:24:31.161Z,17.03
2022-08-19T09:26:58.983Z,23.50
2022-08-19T09:29:26.511Z,19.33
2022-08-19T09:31:54.612Z,23.13
2022-08-19T09:34:23.457Z,24.13
2022-08-19T09:40:13.472Z,22.30
2022-08-19T09:42:49.717Z,23.20
2022-08-19T09:45:18.483Z,19.20
2022-08-19T09:47:46.256Z,18.47
2022-08-19T09:50:16.429Z,19.70
2022-08-19T09:52:57.286Z,20.43
2022-08-19T09:55:31.145Z,22.80
2022-08-19T09:57:59.679Z,20.20
2022-08-19T10:00:27.657Z,18.37
2022-08-19T10:02:55.192Z,24.73
2022-08-19T10:05:42.290Z,28.77
2022-08-19T10:08:13.310Z,32.40
2022-08-19T10:10:44.077Z,24.00
2022-08-19T10:13:14.052Z,28.80
2022-08-19T10:15:47.402Z,27.57
2022-08-19T10:18:17.667Z,20.50
2022-08-19T10:20:46.614Z,24.40
2022-08-19T10:23:19.715Z,23.73
2022-08-19T10:25:47.201Z,27.50
2022-08-19T10:28:16.043Z,33.50
2022-08-19T10:30:43.842Z,23.20
2022-08-19T10:33:11.492Z,22.70
2022-08-19T10:35:42.784Z,17.60
2022-08-19T10:38:31.605Z,18.63
2022-08-19T10:40:59.587Z,24.87
2022-08-19T10:43:27.057Z,19.67
2022-08-19T10:45:57.125Z,20.67
2022-08-19T10:48:24.613Z,14.10
2022-08-19T10:51:09.564Z,17.43
2022-08-19T10:53:38.500Z,18.30
2022-08-19T10:56:25.741Z,14.40
2022-08-19T10:58:54.429Z,13.20
2022-08-19T11:01:21.971Z,16.67
2022-08-19T11:03:49.570Z,15.57
2022-08-19T11:06:17.078Z,12.33
2022-08-19T11:08:46.487Z,11.67
2022-08-19T11:11:14.532Z,12.17
2022-08-19T11:13:43.698Z,15.57
2022-08-19T11:16:15.717Z,11.60
2022-08-19T11:18:44.733Z,11.93
2022-08-19T11:21:13.599Z,14.33
2022-08-19T11:23:41.200Z,13.93
2022-08-19T11:26:10.237Z,15.57
2022-08-19T11:28:38.216Z,16.77
2022-08-19T11:31:05.800Z,13.30
2022-08-19T11:33:33.592Z,15.30
2022-08-19T11:36:01.671Z,18.40
2022-08-19T11:38:29.136Z,14.53
2022-08-19T11:40:57.381Z,14.60
2022-08-19T11:43:27.693Z,14.10
2022-08-19T11:45:55.289Z,18.60
2022-08-19T11:48:23.374Z,11.10
2022-08-19T11:50:50.883Z,12.40
2022-08-19T11:53:20.247Z,10.83
2022-08-19T11:55:47.977Z,12.67
2022-08-19T11:58:19.231Z,11.27
2022-08-19T12:00:48.202Z,16.90
2022-08-19T12:03:15.943Z,13.63
2022-08-19T12:05:43.622Z,22.13
2022-08-19T12:08:12.523Z,13.37
2022-08-19T12:10:40.645Z,11.93
2022-08-19T12:13:08.528Z,12.93
2022-08-19T12:15:37.502Z,14.03
2022-08-19T12:18:06.667Z,13.77
2022-08-19T12:20:36.521Z,13.40
2022-08-19T12:23:04.386Z,15.70
2022-08-19T12:25:32.616Z,12.40
2022-08-19T12:28:00.808Z,11.60
2022-08-19T12:30:28.759Z,10.47
2022-08-19T12:32:56.780Z,10.30
2022-08-19T12:35:26.638Z,9.70
2022-08-19T12:37:57.264Z,10.97
2022-08-19T12:40:26.275Z,9.50
2022-08-19T12:42:54.157Z,9.67
2022-08-19T12:45:21.666Z,9.60
2022-08-19T12:47:50.436Z,7.90
2022-08-19T12:50:22.497Z,8.57
2022-08-19T12:52:51.316Z,8.10
2022-08-19T12:55:19.613Z,8.07
2022-08-19T12:57:47.129Z,8.87
2022-08-19T13:00:16.059Z,9.20
2022-08-19T13:02:45.079Z,8.80
2022-08-19T13:05:13.882Z,9.83
2022-08-19T13:07:41.845Z,10.30
2022-08-19T13:10:12.006Z,8.93
2022-08-19T13:12:39.833Z,8.63
2022-08-19T13:15:11.125Z,14.03
2022-08-19T13:17:39.322Z,15.13
2022-08-19T13:20:08.596Z,8.50
2022-08-19T13:22:36.592Z,7.40
2022-08-19T13:25:04.596Z,7.40
2022-08-19T13:27:33.441Z,8.53
2022-08-19T13:30:18.529Z,7.73
2022-08-19T13:33:03.385Z,8.13
2022-08-19T13:35:30.857Z,9.37
2022-08-19T13:37:58.403Z,9.10
2022-08-19T13:40:27.540Z,10.23
2022-08-19T13:42:56.899Z,7.87
2022-08-19T13:45:26.816Z,7.90
2022-08-19T13:47:59.121Z,8.10
2022-08-19T13:50:28.263Z,9.57
2022-08-19T13:52:57.393Z,10.90
2022-08-19T13:55:25.557Z,9.90
2022-08-19T13:57:53.954Z,9.73
2022-08-19T14:00:25.442Z,9.00
2022-08-19T14:02:53.857Z,7.97
2022-08-19T14:05:21.517Z,8.50
2022-08-19T14:07:49.260Z,12.00
2022-08-19T14:10:17.379Z,7.90
2022-08-19T14:12:45.105Z,8.03
2022-08-19T14:15:13.039Z,8.00
2022-08-19T14:17:42.432Z,11.83
2022-08-19T14:20:11.456Z,7.43
2022-08-19T14:22:45.686Z,7.50
2022-08-19T14:25:17.868Z,6.17
2022-08-19T14:27:45.883Z,6.03
2022-08-19T14:30:14.811Z,5.50
2022-08-19T14:32:45.131Z,5.13
2022-08-19T14:35:13.507Z,5.93
2022-08-19T14:37:45.577Z,6.07
2022-08-19T14:40:15.102Z,7.70
2022-08-19T14:42:42.928Z,6.13
2022-08-19T14:45:11.318Z,5.67
2022-08-19T14:47:39.714Z,6.03
2022-08-19T14:50:10.627Z,8.00
2022-08-19T14:52:45.552Z,4.97
2022-08-19T14:55:13.036Z,5.60
2022-08-19T14:57:42.679Z,6.20
2022-08-19T15:00:13.725Z,5.33
2022-08-19T15:02:41.305Z,7.67
2022-08-19T15:05:10.733Z,10.50
2022-08-19T15:07:38.575Z,5.30
2022-08-19T15:10:07.759Z,8.63
2022-08-19T15:12:36.083Z,7.87
2022-08-19T15:15:03.947Z,8.60
2022-08-19T15:17:43.545Z,6.00
2022-08-19T15:20:15.611Z,6.50
2022-08-19T15:22:43.162Z,9.60
2022-08-19T15:25:12.114Z,5.87
2022-08-19T15:27:40.756Z,6.50
2022-08-19T15:30:09.469Z,6.57
2022-08-19T15:32:37.611Z,6.13
2022-08-19T15:35:05.988Z,5.33
2022-08-19T15:37:37.437Z,6.03
2022-08-19T15:40:05.919Z,6.30
2022-08-19T15:42:33.527Z,5.03
2022-08-19T15:45:02.303Z,7.17
2022-08-19T15:47:34.737Z,5.63
2022-08-19T15:50:05.766Z,5.07
2022-08-19T15:52:33.284Z,5.70
2022-08-19T15:55:03.592Z,5.63
2022-08-19T15:57:48.513Z,6.70
2022-08-19T16:00:33.858Z,4.77
2022-08-19T16:03:18.839Z,4.63
2022-08-19T16:06:15.195Z,5.83
2022-08-19T16:08:49.068Z,8.67
2022-08-19T16:11:21.138Z,4.57
2022-08-19T16:13:51.884Z,4.80
2022-08-19T16:16:19.543Z,5.67
2022-08-19T16:18:47.477Z,4.80
2022-08-19T16:21:17.183Z,8.97
2022-08-19T16:23:46.466Z,5.33
2022-08-19T16:26:14.373Z,4.47
2022-08-19T16:28:43.747Z,4.50
2022-08-19T16:31:11.290Z,6.07
2022-08-19T16:33:39.096Z,5.60
2022-08-19T16:36:07.799Z,6.60
2022-08-19T16:38:37.539Z,7.00
2022-08-19T16:41:05.137Z,4.40
2022-08-19T16:43:32.766Z,4.70
2022-08-19T16:46:02.418Z,4.50
2022-08-19T16:48:32.822Z,5.03
2022-08-19T16:51:01.012Z,3.83
2022-08-19T16:53:31.994Z,5.30
2022-08-19T16:56:00.108Z,7.60
2022-08-19T16:58:29.195Z,4.13
2022-08-19T17:00:59.573Z,9.10
2022-08-19T17:03:35.689Z,6.77
2022-08-19T17:06:04.944Z,4.57
2022-08-19T17:08:48.490Z,5.90
2022-08-19T17:11:18.489Z,10.43
2022-08-19T17:13:47.759Z,8.40
2022-08-19T17:16:16.106Z,5.13
2022-08-19T17:18:45.005Z,4.60
2022-08-19T17:21:13.341Z,9.30
2022-08-19T17:23:42.893Z,3.87
2022-08-19T17:26:16.890Z,4.50
2022-08-19T17:28:47.244Z,11.83
2022-08-19T17:31:15.168Z,8.07
2022-08-19T17:33:42.829Z,6.20
2022-08-19T17:36:17.203Z,3.50
2022-08-19T17:38:44.696Z,8.70
2022-08-19T17:41:12.222Z,3.33
2022-08-19T17:43:43.384Z,3.10
2022-08-19T17:46:18.238Z,3.00
2022-08-19T17:48:51.744Z,4.73
2022-08-19T17:51:22.402Z,2.80
2022-08-19T17:53:51.621Z,3.97
2022-08-19T17:56:19.648Z,2.77
2022-08-19T17:58:59.993Z,3.60
2022-08-19T18:01:36.366Z,5.13
2022-08-19T18:04:18.786Z,3.90
2022-08-19T18:06:53.547Z,4.20
2022-08-19T18:09:24.052Z,2.87
2022-08-19T18:11:52.687Z,2.50
2022-08-19T18:14:20.863Z,7.43
2022-08-19T18:16:48.349Z,6.80
2022-08-19T18:19:15.803Z,2.50
2022-08-19T18:21:43.310Z,4.00
2022-08-19T18:24:12.717Z,3.00
2022-08-19T18:26:40.471Z,2.77
2022-08-19T18:29:09.266Z,2.63
2022-08-19T18:31:36.814Z,3.13
2022-08-19T18:34:04.351Z,3.17
2022-08-19T18:36:52.965Z,2.30
2022-08-19T18:39:39.594Z,2.80
2022-08-19T18:42:31.924Z,3.13
2022-08-19T18:45:16.853Z,2.93
2022-08-19T18:48:01.699Z,4.23
2022-08-19T18:50:29.226Z,3.00
2022-08-19T18:52:56.688Z,2.90
2022-08-19T18:55:28.338Z,4.40
2022-08-19T18:57:55.987Z,2.67
2022-08-19T19:00:23.782Z,3.20
2022-08-19T19:02:51.279Z,4.50
2022-08-19T19:05:20.405Z,3.40
2022-08-19T19:07:48.409Z,4.17
2022-08-19T19:10:15.962Z,3.20
2022-08-19T19:12:45.511Z,3.53
2022-08-19T19:15:13.331Z,6.43
2022-08-19T19:17:42.001Z,7.70
2022-08-19T19:20:10.200Z,3.20
2022-08-19T19:22:37.682Z,2.70
2022-08-19T19:25:05.563Z,2.73
2022-08-19T19:27:33.031Z,3.07
2022-08-19T19:30:02.051Z,4.50
2022-08-19T19:32:38.801Z,3.27
2022-08-19T19:35:07.584Z,5.33
2022-08-19T19:37:35.028Z,3.10
2022-08-19T19:40:02.653Z,8.83
2022-08-19T19:42:30.184Z,3.30
2022-08-19T19:44:58.632Z,3.50
2022-08-19T19:47:28.113Z,3.00
2022-08-19T19:50:15.192Z,3.47
2022-08-19T19:52:44.378Z,2.90
2022-08-19T19:55:18.134Z,3.17
2022-08-19T19:57:46.292Z,2.90
2022-08-19T20:00:16.312Z,3.13
2022-08-19T20:02:49.622Z,3.37
2022-08-19T20:05:19.226Z,2.90
2022-08-19T20:08:04.283Z,2.97
2022-08-19T20:10:32.476Z,4.93
2022-08-19T20:13:02.264Z,3.90
2022-08-19T20:15:30.899Z,3.70
2022-08-19T20:17:59.988Z,3.10
2022-08-19T20:20:27.636Z,4.23
2022-08-19T20:22:55.296Z,3.07
2022-08-19T20:25:22.797Z,2.43
2022-08-19T20:27:50.860Z,9.53
2022-08-19T20:30:19.811Z,2.53
2022-08-19T20:32:47.571Z,9.23
2022-08-19T20:35:18.309Z,2.70
2022-08-19T20:37:45.878Z,5.37
2022-08-19T20:40:14.138Z,2.53
2022-08-19T20:42:42.146Z,2.33
2022-08-19T20:45:31.976Z,2.90
2022-08-19T20:47:57.684Z,2.70
2022-08-19T20:50:26.510Z,2.43
2022-08-19T20:52:57.624Z,3.27
2022-08-19T20:55:25.865Z,4.40
2022-08-19T20:57:53.563Z,2.63
2022-08-19T21:00:21.364Z,2.43
2022-08-19T21:02:48.828Z,2.07
2022-08-19T21:05:16.343Z,5.23
2022-08-19T21:07:45.171Z,2.10
2022-08-19T21:10:12.651Z,1.90
2022-08-19T21:12:40.541Z,5.70
2022-08-19T21:15:08.536Z,2.07
2022-08-19T21:17:36.012Z,2.07
2022-08-19T21:20:03.749Z,1.87
2022-08-19T21:22:31.195Z,3.07
2022-08-19T21:25:00.026Z,2.17
2022-08-19T21:27:27.531Z,1.90
2022-08-19T21:29:55.032Z,2.07
2022-08-19T21:32:23.843Z,2.07
2022-08-19T21:34:52.648Z,2.40
2022-08-19T21:37:25.177Z,3.63
2022-08-19T21:39:53.497Z,2.33
2022-08-19T21:42:22.870Z,2.07
2022-08-19T21:44:50.404Z,2.10
2022-08-19T21:47:17.928Z,3.00
2022-08-19T21:49:46.013Z,1.97
2022-08-19T21:52:13.922Z,4.50
2022-08-19T21:54:42.062Z,1.93
2022-08-19T21:57:10.907Z,1.90
2022-08-19T21:59:41.127Z,1.67
2022-08-19T22:02:19.911Z,1.93
2022-08-19T22:04:48.228Z,1.73
2022-08-19T22:07:15.749Z,1.93
2022-08-19T22:09:44.360Z,6.00
2022-08-19T22:12:12.908Z,1.80
2022-08-19T22:14:41.722Z,2.40
2022-08-19T22:17:09.193Z,2.87
2022-08-19T22:19:36.687Z,2.00
2022-08-19T22:22:04.255Z,2.43
2022-08-19T22:24:31.726Z,2.70
2022-08-19T22:27:00.592Z,2.00
2022-08-19T22:29:33.114Z,2.23
2022-08-19T22:32:06.967Z,2.40
2022-08-19T22:34:50.725Z,1.73
2022-08-19T22:37:18.327Z,2.07
2022-08-19T22:39:45.938Z,2.00
2022-08-19T22:42:13.936Z,2.10
2022-08-19T22:44:41.688Z,8.43
2022-08-19T22:47:10.516Z,6.50
2022-08-19T22:49:37.991Z,1.80
2022-08-19T22:52:21.984Z,3.17
2022-08-19T22:54:50.640Z,5.50
2022-08-19T22:57:19.544Z,2.23
2022-08-19T22:59:48.060Z,2.93
2022-08-19T23:02:20.360Z,2.50
2022-08-19T23:04:47.920Z,9.63
2022-08-19T23:07:15.393Z,5.30
2022-08-19T23:09:42.856Z,2.60
2022-08-19T23:12:12.305Z,2.60
2022-08-19T23:14:39.783Z,2.90
2022-08-19T23:17:07.316Z,2.57
2022-08-19T23:19:36.258Z,5.40
2022-08-19T23:22:05.172Z,4.93
2022-08-19T23:24:32.680Z,6.37
2022-08-19T23:27:17.840Z,4.90
2022-08-19T23:30:02.849Z,3.03
2022-08-19T23:32:34.683Z,2.63
2022-08-19T23:35:03.536Z,3.07
2022-08-19T23:37:30.950Z,4.23
2022-08-19T23:39:58.513Z,3.13
2022-08-19T23:42:26.365Z,4.60
2022-08-19T23:44:53.968Z,4.17
2022-08-19T23:47:21.775Z,3.03
2022-08-19T23:49:49.581Z,3.50
2022-08-19T23:52:18.439Z,4.53
2022-08-19T23:54:45.880Z,4.53
2022-08-19T23:57:14.619Z,3.57
2022-08-19T23:59:42.755Z,4.40
